Time;durP1;ratioP1;P1;durP2;ratioP2;P2;SDS_P1;SDS_P2;PMS_P1;PMS_P2;Temp;Humidity;BMP_temperature;BMP_pressure;BME280_temperature;BME280_humidity;BME280_pressure;Samples;Min_cycle;Max_cycle;Signal;HPM_P1;HPM_P2
2022/12/25 00:01:14;;;;;;;58.83;35.78;;;;;;;3.07;82.47;101094.51;1830798;77;25902;-63
2022/12/25 00:03:43;;;;;;;70.03;39.40;;;;;;;3.03;82.12;101102.23;1828790;77;25715;-63
2022/12/25 00:06:10;;;;;;;63.15;38.28;;;;;;;3.03;82.32;101098.73;1828917;78;25784;-63
2022/12/25 00:08:39;;;;;;;63.63;38.25;;;;;;;3.10;82.59;101100.12;1833524;77;25683;-63
2022/12/25 00:11:14;;;;;;;65.50;35.98;;;;;;;3.16;82.77;101106.93;1834508;77;27602;-63
2022/12/25 00:13:43;;;;;;;66.47;36.88;;;;;;;3.22;82.88;101105.27;1851226;77;25778;-63
2022/12/25 00:16:17;;;;;;;61.25;35.25;;;;;;;3.27;82.94;101099.26;1842051;75;25768;-64
2022/12/25 00:18:46;;;;;;;54.70;33.58;;;;;;;3.32;83.16;101101.67;1847715;77;25660;-63
2022/12/25 00:21:13;;;;;;;58.17;34.27;;;;;;;3.36;83.05;101108.53;1837918;77;25702;-63
2022/12/25 00:23:41;;;;;;;59.05;33.75;;;;;;;3.39;82.93;101114.55;1853501;77;27453;-63
2022/12/25 00:26:15;;;;;;;57.60;33.60;;;;;;;3.43;82.73;101117.45;1855718;77;25709;-63
2022/12/25 00:28:42;;;;;;;59.48;35.50;;;;;;;3.50;82.70;101118.44;1819045;77;29978;-63
2022/12/25 00:31:15;;;;;;;59.90;35.10;;;;;;;3.55;82.63;101121.70;1843441;77;25681;-63
2022/12/25 00:33:44;;;;;;;55.67;33.33;;;;;;;3.58;82.34;101119.77;1849362;77;25708;-63
2022/12/25 00:36:14;;;;;;;56.08;32.08;;;;;;;3.58;82.43;101125.53;1846525;77;27457;-63
2022/12/25 00:38:42;;;;;;;58.75;33.13;;;;;;;3.62;82.58;101124.44;1847856;77;25722;-63
2022/12/25 00:41:14;;;;;;;67.17;37.78;;;;;;;3.62;82.20;101128.44;1847794;77;25762;-63
2022/12/25 00:43:41;;;;;;;66.10;35.55;;;;;;;3.64;82.21;101123.87;1846199;77;25769;-63
2022/12/25 00:46:11;;;;;;;76.20;37.23;;;;;;;3.62;81.61;101119.58;1843021;77;25653;-63
2022/12/25 00:48:38;;;;;;;72.25;39.13;;;;;;;3.52;80.85;101123.22;1816469;77;27434;-63
2022/12/25 00:51:09;;;;;;;60.88;36.48;;;;;;;3.45;81.13;101129.32;1816445;79;26055;-62
2022/12/25 00:53:36;;;;;;;69.07;39.80;;;;;;;3.43;81.13;101122.77;1822737;77;25808;-63
2022/12/25 00:56:06;;;;;;;65.80;38.02;;;;;;;3.37;80.81;101120.41;1823325;78;26509;-62
2022/12/25 00:58:35;;;;;;;66.12;37.33;;;;;;;3.31;80.75;101130.05;1836201;75;25813;-63
2022/12/25 01:01:03;;;;;;;69.07;40.30;;;;;;;3.26;80.69;101132.10;1843430;77;27453;-63
2022/12/25 01:03:29;;;;;;;69.72;43.58;;;;;;;3.23;80.82;101128.27;1835276;77;25713;-62
2022/12/25 01:06:01;;;;;;;71.28;40.70;;;;;;;3.20;80.90;101128.41;1843311;77;25647;-62
2022/12/25 01:08:33;;;;;;;77.53;43.25;;;;;;;3.16;80.88;101124.20;1840262;75;25787;-62
2022/12/25 01:11:06;;;;;;;74.90;42.75;;;;;;;3.09;81.00;101123.17;1855298;77;25918;-63
2022/12/25 01:13:35;;;;;;;76.00;43.55;;;;;;;3.06;81.24;101125.14;1849501;77;32872;-62
2022/12/25 01:16:10;;;;;;;73.00;40.95;;;;;;;3.06;81.39;101114.50;1843720;77;25847;-62
2022/12/25 01:18:37;;;;;;;66.90;40.58;;;;;;;3.06;81.90;101123.80;1828588;77;25453;-63
2022/12/25 01:21:15;;;;;;;70.47;42.13;;;;;;;3.08;82.24;101127.25;1855972;77;27683;-62
2022/12/25 01:23:43;;;;;;;73.97;43.52;;;;;;;3.06;82.25;101126.02;1830198;77;25795;-62
2022/12/25 01:26:13;;;;;;;66.90;40.65;;;;;;;3.10;82.54;101128.89;1856339;77;27430;-62
2022/12/25 01:28:41;;;;;;;66.25;39.65;;;;;;;3.16;82.78;101129.53;1842778;77;25742;-62
2022/12/25 01:31:13;;;;;;;71.85;41.30;;;;;;;3.20;82.82;101133.73;1841790;76;25491;-62
2022/12/25 01:33:43;;;;;;;81.42;46.85;;;;;;;3.25;83.07;101130.38;1815221;77;25651;-63
2022/12/25 01:36:16;;;;;;;75.47;43.15;;;;;;;3.29;83.41;101130.14;1816225;79;25765;-63
2022/12/25 01:38:45;;;;;;;67.00;39.53;;;;;;;3.32;83.73;101142.41;1840024;75;27680;-64
2022/12/25 01:41:15;;;;;;;69.22;40.15;;;;;;;3.36;83.85;101131.98;1842500;77;25765;-63
2022/12/25 01:44:05;;;;;;;72.67;40.83;;;;;;;3.41;83.90;101129.95;1832209;75;25702;-63
2022/12/25 01:46:34;;;;;;;70.12;37.90;;;;;;;3.45;83.87;101127.99;1859480;77;25696;-63
2022/12/25 01:49:06;;;;;;;67.20;38.90;;;;;;;3.50;83.92;101135.24;1840277;77;26149;-63
2022/12/25 01:51:39;;;;;;;61.55;38.13;;;;;;;3.52;83.77;101129.86;1848607;75;27529;-63
2022/12/25 01:54:16;;;;;;;80.38;38.20;;;;;;;3.52;83.53;101127.20;1856582;75;25684;-63
2022/12/25 01:56:45;;;;;;;66.40;40.12;;;;;;;3.58;83.91;101128.20;1856408;77;25791;-63
2022/12/25 01:59:15;;;;;;;61.68;35.00;;;;;;;3.60;83.68;101121.00;1826676;77;26075;-63
2022/12/25 02:01:43;;;;;;;57.13;34.18;;;;;;;3.57;83.39;101126.02;1856135;77;25729;-63
2022/12/25 02:04:21;;;;;;;56.40;33.58;;;;;;;3.60;83.63;101131.16;1856037;77;27446;-63
2022/12/25 02:06:51;;;;;;;59.88;34.83;;;;;;;3.63;83.63;101131.94;1828694;77;25943;-63
2022/12/25 02:09:18;;;;;;;55.98;34.73;;;;;;;3.63;83.43;101131.94;1843680;77;25735;-63
2022/12/25 02:11:55;;;;;;;66.50;36.55;;;;;;;3.65;83.46;101133.57;1856078;77;25734;-63
2022/12/25 02:14:24;;;;;;;60.43;34.27;;;;;;;3.69;83.17;101142.24;1853330;75;25657;-63
2022/12/25 02:17:14;;;;;;;61.18;35.70;;;;;;;3.69;82.94;101140.46;1822715;77;27515;-63
2022/12/25 02:19:52;;;;;;;60.92;33.73;;;;;;;3.71;82.88;101141.70;1840244;77;25705;-63
2022/12/25 02:22:41;;;;;;;63.75;36.65;;;;;;;3.75;83.09;101136.13;1858342;77;25760;-63
2022/12/25 02:25:47;;;;;;;64.22;34.95;;;;;;;3.76;83.00;101132.53;1844417;75;25724;-63
2022/12/25 02:28:43;;;;;;;70.17;41.85;;;;;;;3.74;82.47;101138.39;1851935;75;26121;-63
2022/12/25 02:31:17;;;;;;;68.17;40.20;;;;;;;3.70;82.51;101138.19;1859904;77;27499;-63
2022/12/25 02:34:22;;;;;;;67.87;39.40;;;;;;;3.70;82.37;101137.31;1847540;77;25735;-63
2022/12/25 02:37:18;;;;;;;73.75;39.70;;;;;;;3.67;82.29;101145.48;1744618;82;25784;-63
2022/12/25 02:40:20;;;;;;;68.20;38.80;;;;;;;3.61;82.16;101148.00;1825728;75;25795;-64
2022/12/25 03:08:45;;;;;;;72.58;42.08;;;;;;;3.36;84.72;101181.19;1849116;77;25648;-63
2022/12/25 03:11:31;;;;;;;76.90;43.58;;;;;;;3.39;84.92;101181.52;1829128;75;25783;-63
2022/12/25 03:16:53;;;;;;;82.53;43.60;;;;;;;3.45;87.49;101188.69;1848060;77;25768;-63
2022/12/25 03:27:54;;;;;;;65.72;40.23;;;;;;;3.62;87.80;101209.58;1791969;78;29559;-64
2022/12/25 03:33:22;;;;;;;71.33;43.13;;;;;;;3.63;88.59;101205.95;1848600;77;25838;-63
2022/12/25 03:36:19;;;;;;;68.40;38.63;;;;;;;3.65;88.79;101212.55;1854064;77;26015;-63
2022/12/25 04:37:53;;;;;;;44.50;27.37;;;;;;;4.14;88.97;101264.48;1842682;75;28452;-63
2022/12/25 04:40:20;;;;;;;46.33;25.75;;;;;;;4.15;89.24;101268.88;1834040;75;25806;-63
2022/12/25 04:42:50;;;;;;;23.50;14.00;;;;;;;4.16;89.02;101267.09;1841313;75;25783;-64
2022/12/25 04:45:17;;;;;;;13.45;8.93;;;;;;;4.23;90.53;101273.80;1854701;77;25776;-64
2022/12/25 04:47:44;;;;;;;12.47;7.30;;;;;;;4.34;91.10;101265.22;1839099;77;25855;-63
2022/12/25 04:50:11;;;;;;;11.00;7.12;;;;;;;4.46;92.79;101261.02;1854622;75;27308;-64
2022/12/25 04:52:40;;;;;;;14.23;7.05;;;;;;;4.56;93.29;101263.56;1856597;76;25700;-64
2022/12/25 04:55:09;;;;;;;10.85;7.53;;;;;;;4.64;93.38;101269.81;1819916;77;25746;-64
2022/12/25 04:57:37;;;;;;;14.60;7.62;;;;;;;4.70;93.08;101266.34;1825178;77;26431;-64
2022/12/25 05:00:06;;;;;;;14.30;7.87;;;;;;;4.76;92.71;101273.59;1835799;77;25763;-64
2022/12/25 05:02:33;;;;;;;11.40;7.37;;;;;;;4.79;92.67;101271.61;1813993;78;27517;-64
2022/12/25 05:05:00;;;;;;;12.85;7.22;;;;;;;4.80;92.12;101275.12;1828211;77;25776;-64
2022/12/25 05:07:27;;;;;;;14.93;6.70;;;;;;;4.82;91.83;101281.23;1831320;75;25745;-64
2022/12/25 05:09:54;;;;;;;10.48;6.62;;;;;;;4.85;91.82;101291.73;1846856;77;25849;-64
2022/12/25 05:12:20;;;;;;;10.58;7.17;;;;;;;4.85;91.79;101287.25;1823667;77;25765;-64
2022/12/25 05:14:47;;;;;;;8.73;6.22;;;;;;;4.85;91.57;101287.25;1849681;77;27439;-64
2022/12/25 05:17:14;;;;;;;11.70;7.05;;;;;;;4.85;91.84;101296.58;1855214;77;25475;-64
2022/12/25 05:19:42;;;;;;;9.78;6.95;;;;;;;4.86;91.82;101298.79;1855723;77;25795;-64
2022/12/25 05:22:09;;;;;;;8.63;6.05;;;;;;;4.86;91.90;101306.78;1856383;77;25770;-63
2022/12/25 05:24:36;;;;;;;9.50;5.70;;;;;;;4.89;91.89;101315.08;1854297;75;25779;-63
2022/12/25 05:27:03;;;;;;;9.48;5.42;;;;;;;4.92;91.77;101311.77;1842268;75;29624;-63
2022/12/25 05:29:30;;;;;;;10.25;6.53;;;;;;;4.94;91.79;101315.66;1855821;77;25740;-63
2022/12/25 05:31:57;;;;;;;10.88;6.90;;;;;;;4.96;91.67;101313.78;1856186;76;25705;-63
2022/12/25 05:34:24;;;;;;;10.25;6.78;;;;;;;4.99;91.36;101325.63;1843956;75;26747;-63
2022/12/25 05:36:51;;;;;;;11.05;6.53;;;;;;;5.01;90.97;101335.25;1825093;75;25781;-63
2022/12/25 05:39:18;;;;;;;11.43;6.70;;;;;;;5.02;90.98;101333.42;1855448;77;27435;-63
2022/12/25 05:41:45;;;;;;;13.50;6.28;;;;;;;5.04;90.93;101334.20;1824144;77;25741;-63
2022/12/25 05:44:13;;;;;;;7.75;5.45;;;;;;;5.05;90.80;101333.75;1847941;77;25724;-63
2022/12/25 05:46:40;;;;;;;9.60;5.15;;;;;;;5.08;90.48;101342.44;1856054;75;25939;-63
2022/12/25 05:49:06;;;;;;;12.90;7.35;;;;;;;5.09;90.64;101352.16;1822397;77;26038;-63
2022/12/25 05:51:33;;;;;;;14.03;7.62;;;;;;;5.09;90.57;101336.61;1838764;75;27436;-63
2022/12/25 05:54:00;;;;;;;11.50;6.85;;;;;;;5.10;90.19;101339.22;1847126;77;26093;-63
2022/12/25 05:56:27;;;;;;;17.55;7.12;;;;;;;5.13;90.12;101340.36;1855894;75;25856;-63
2022/12/25 05:58:54;;;;;;;9.28;6.05;;;;;;;5.15;89.99;101342.47;1855820;75;26677;-63
2022/12/25 06:01:25;;;;;;;9.65;5.97;;;;;;;5.16;89.96;101345.98;1832364;77;25708;-63
2022/12/25 06:03:52;;;;;;;10.00;6.40;;;;;;;5.14;89.90;101344.75;1827969;77;27399;-63
2022/12/25 06:06:20;;;;;;;7.28;5.45;;;;;;;5.15;89.91;101352.30;1846851;77;25745;-63
2022/12/25 06:08:46;;;;;;;7.42;5.35;;;;;;;5.15;89.77;101357.14;1856571;77;25649;-63
2022/12/25 06:11:14;;;;;;;6.97;4.92;;;;;;;5.15;89.77;101359.80;1855712;77;25841;-63
2022/12/25 06:13:41;;;;;;;7.50;4.70;;;;;;;5.17;89.67;101362.37;1837663;77;25484;-63
2022/12/25 06:16:11;;;;;;;6.95;5.03;;;;;;;5.21;89.59;101363.06;1842906;75;28468;-63
2022/12/25 06:18:43;;;;;;;10.40;5.92;;;;;;;5.21;89.72;101360.39;1842394;76;25843;-63
2022/12/25 06:21:12;;;;;;;8.15;5.53;;;;;;;5.19;89.80;101363.16;1828423;76;25781;-63
2022/12/25 06:23:40;;;;;;;12.10;5.22;;;;;;;5.17;89.82;101359.25;1832239;78;25955;-63
2022/12/25 06:26:11;;;;;;;9.60;5.65;;;;;;;5.20;89.71;101367.55;1827605;76;25717;-63
2022/12/25 06:28:39;;;;;;;10.78;6.15;;;;;;;5.22;89.67;101372.78;1861383;75;27410;-63
2022/12/25 06:31:12;;;;;;;6.37;5.30;;;;;;;5.21;89.71;101379.94;1864825;76;25859;-63
2022/12/25 06:33:40;;;;;;;8.63;5.53;;;;;;;5.22;89.87;101379.00;1864249;76;25483;-63
2022/12/25 06:36:14;;;;;;;7.40;5.72;;;;;;;5.25;89.66;101377.47;1845518;76;25845;-63
2022/12/25 06:38:41;;;;;;;7.03;5.72;;;;;;;5.27;89.70;101382.74;1853179;76;25825;-63
2022/12/25 06:41:13;;;;;;;9.15;5.90;;;;;;;5.30;89.46;101383.42;1848375;76;27437;-63
2022/12/25 06:43:40;;;;;;;7.85;5.60;;;;;;;5.29;89.43;101391.04;1854460;76;25734;-63
2022/12/25 06:46:10;;;;;;;8.98;6.08;;;;;;;5.27;89.33;101400.93;1855633;76;25741;-63
2022/12/25 06:48:39;;;;;;;8.68;5.58;;;;;;;5.29;89.32;101404.38;1856582;76;25793;-64
2022/12/25 06:51:07;;;;;;;8.63;5.95;;;;;;;5.28;89.34;101409.81;1854738;75;25718;-63
2022/12/25 06:53:33;;;;;;;8.38;5.72;;;;;;;5.27;89.37;101420.09;1858193;76;27695;-64
2022/12/25 06:56:08;;;;;;;6.80;5.00;;;;;;;5.24;89.40;101415.80;1860120;76;25480;-63
2022/12/25 06:58:35;;;;;;;7.50;5.72;;;;;;;5.23;89.53;101422.52;1859859;76;26488;-64
2022/12/25 07:01:13;;;;;;;8.45;5.60;;;;;;;5.20;89.50;101428.90;1857198;76;26711;-64
2022/12/25 07:03:38;;;;;;;7.45;6.03;;;;;;;5.19;89.62;101439.17;1858001;76;26003;-63
2022/12/25 07:06:05;;;;;;;9.33;6.45;;;;;;;5.19;89.60;101439.66;1858613;76;27440;-63
2022/12/25 07:08:32;;;;;;;8.85;5.80;;;;;;;5.19;89.53;101437.84;1855053;76;25762;-63
2022/12/25 07:10:59;;;;;;;8.48;6.28;;;;;;;5.17;89.66;101449.06;1853043;76;25696;-64
2022/12/25 07:13:27;;;;;;;8.73;6.47;;;;;;;5.20;89.48;101444.06;1849242;75;25795;-64
2022/12/25 07:16:03;;;;;;;7.80;6.30;;;;;;;5.19;89.52;101447.66;1828145;77;25759;-64
2022/12/25 07:18:31;;;;;;;11.25;6.85;;;;;;;5.18;89.47;101448.13;1835598;76;27436;-64
2022/12/25 07:21:01;;;;;;;11.88;7.22;;;;;;;5.18;89.49;101454.79;1851821;77;25816;-64
2022/12/25 07:23:28;;;;;;;7.83;6.15;;;;;;;5.17;89.46;101455.73;1853853;77;25709;-64
2022/12/25 07:25:58;;;;;;;9.53;6.03;;;;;;;5.19;89.33;101459.19;1853178;77;25841;-64
2022/12/25 07:28:26;;;;;;;7.85;6.30;;;;;;;5.21;89.15;101469.30;1854811;77;25759;-64
2022/12/25 07:30:53;;;;;;;9.53;6.05;;;;;;;5.23;89.09;101467.42;1852644;77;28292;-63
2022/12/25 07:33:20;;;;;;;9.23;6.47;;;;;;;5.26;88.96;101471.72;1838642;76;25845;-64
2022/12/25 07:35:47;;;;;;;10.53;7.35;;;;;;;5.27;88.76;101474.29;1838021;77;25892;-64
2022/12/25 07:38:14;;;;;;;9.48;7.15;;;;;;;5.26;88.74;101473.90;1840871;77;25836;-64
2022/12/25 07:40:44;;;;;;;9.58;7.45;;;;;;;5.26;88.56;101485.91;1851359;77;26064;-64
2022/12/25 07:43:11;;;;;;;9.45;7.17;;;;;;;5.25;88.52;101491.34;1852848;77;28358;-64
2022/12/25 07:45:38;;;;;;;19.65;7.95;;;;;;;5.25;88.43;101492.18;1840791;77;25796;-63
2022/12/25 07:48:05;;;;;;;9.30;7.00;;;;;;;5.26;88.41;101493.06;1815910;77;26351;-64
2022/12/25 07:50:33;;;;;;;11.90;7.08;;;;;;;5.27;88.37;101492.97;1853516;77;25717;-64
2022/12/25 07:53:00;;;;;;;12.68;8.30;;;;;;;5.28;88.28;101496.52;1843943;76;25686;-64
2022/12/25 07:55:26;;;;;;;10.05;6.97;;;;;;;5.29;88.12;101504.42;1851900;77;28404;-64
2022/12/25 07:57:53;;;;;;;15.60;9.33;;;;;;;5.30;88.04;101516.82;1854477;77;25479;-64
2022/12/25 08:00:21;;;;;;;11.40;7.97;;;;;;;5.29;88.04;101516.42;1850590;77;25822;-64
2022/12/25 08:02:50;;;;;;;14.50;8.15;;;;;;;5.29;88.04;101519.09;1852216;77;26410;-64
2022/12/25 08:05:18;;;;;;;10.30;7.17;;;;;;;5.28;88.17;101524.53;1849718;77;25684;-64
2022/12/25 08:07:45;;;;;;;13.43;7.10;;;;;;;5.27;88.07;101528.98;1839993;77;27460;-64
2022/12/25 08:10:12;;;;;;;8.70;6.45;;;;;;;5.25;88.11;101529.53;1819970;77;25891;-63
2022/12/25 08:12:39;;;;;;;9.30;6.92;;;;;;;5.25;88.07;101538.87;1818479;77;25761;-64
2022/12/25 08:15:07;;;;;;;9.93;7.08;;;;;;;5.26;88.07;101537.92;1812289;75;25830;-63
2022/12/25 08:17:34;;;;;;;12.70;6.95;;;;;;;5.28;88.27;101540.05;1848335;75;25817;-64
2022/12/25 08:20:01;;;;;;;9.80;5.83;;;;;;;5.30;88.01;101542.17;1847487;77;27466;-63
2022/12/25 08:22:28;;;;;;;9.08;6.12;;;;;;;5.36;87.95;101546.77;1824282;75;25861;-64
2022/12/25 08:24:55;;;;;;;17.42;6.80;;;;;;;5.36;87.82;101548.98;1842488;75;25784;-64
2022/12/25 08:27:22;;;;;;;11.63;5.67;;;;;;;5.42;87.71;101553.13;1847952;75;25841;-64
2022/12/25 08:29:49;;;;;;;11.45;5.85;;;;;;;5.44;87.57;101553.88;1850991;77;25805;-63
2022/12/25 08:32:16;;;;;;;9.43;5.97;;;;;;;5.46;87.42;101563.55;1849331;77;27453;-64
2022/12/25 08:34:43;;;;;;;6.65;5.05;;;;;;;5.48;87.20;101566.13;1841624;75;25725;-64
2022/12/25 08:37:10;;;;;;;6.90;5.75;;;;;;;5.49;87.26;101569.19;1841067;75;25757;-63
2022/12/25 08:39:37;;;;;;;11.45;5.35;;;;;;;5.51;87.23;101568.64;1843198;75;26478;-63
2022/12/25 08:42:04;;;;;;;12.30;5.78;;;;;;;5.54;87.17;101569.78;1852232;75;25713;-63
2022/12/25 08:44:30;;;;;;;6.87;5.70;;;;;;;5.53;86.95;101575.22;1835900;75;26883;-64
2022/12/25 08:46:57;;;;;;;13.43;6.30;;;;;;;5.49;86.77;101573.19;1827964;77;25774;-64
2022/12/25 08:49:27;;;;;;;8.53;6.17;;;;;;;5.47;86.81;101581.75;1840253;75;25742;-64
2022/12/25 08:51:53;;;;;;;10.15;5.50;;;;;;;5.48;86.71;101584.80;1847749;75;26603;-64
2022/12/25 08:54:19;;;;;;;15.90;8.15;;;;;;;5.52;86.80;101581.01;1846326;77;25726;-64
2022/12/25 08:56:46;;;;;;;9.48;6.60;;;;;;;5.53;86.70;101584.07;1852123;77;27454;-64
2022/12/25 08:59:13;;;;;;;10.32;5.97;;;;;;;5.58;86.65;101587.37;1839471;77;25692;-64
2022/12/25 09:01:40;;;;;;;7.58;5.72;;;;;;;5.61;86.55;101584.52;1850416;77;25823;-65
2022/12/25 09:04:07;;;;;;;6.67;4.87;;;;;;;5.65;86.57;101595.87;1843026;75;25849;-64
2022/12/25 09:06:34;;;;;;;8.83;5.12;;;;;;;5.70;86.26;101590.29;1828274;77;25701;-64
2022/12/25 09:09:01;;;;;;;6.90;4.72;;;;;;;5.72;86.25;101589.73;1844033;77;27469;-64
2022/12/25 09:11:27;;;;;;;7.67;4.85;;;;;;;5.78;86.14;101596.95;1844735;75;26045;-64
2022/12/25 09:13:54;;;;;;;9.43;5.50;;;;;;;5.79;85.96;101600.47;1849809;75;25756;-64
2022/12/25 09:16:22;;;;;;;8.05;4.28;;;;;;;5.80;86.05;101603.52;1853440;77;25957;-64
2022/12/25 09:18:50;;;;;;;7.65;3.87;;;;;;;5.84;86.08;101595.75;1833634;75;25802;-65
2022/12/25 09:21:18;;;;;;;10.85;4.03;;;;;;;5.85;85.94;101600.60;1836062;77;27528;-64
2022/12/25 09:23:45;;;;;;;7.53;3.90;;;;;;;5.86;85.75;101598.33;1847330;77;25695;-64
2022/12/25 09:26:14;;;;;;;6.85;3.85;;;;;;;5.83;85.64;101603.37;1843260;77;25625;-64
2022/12/25 09:28:41;;;;;;;8.48;4.17;;;;;;;5.80;85.55;101605.74;1838195;77;26069;-64
2022/12/25 09:31:08;;;;;;;7.25;3.62;;;;;;;5.80;85.59;101607.53;1828922;75;25844;-64
2022/12/25 09:33:35;;;;;;;10.60;3.62;;;;;;;5.82;85.59;101613.66;1841728;77;27851;-64
2022/12/25 09:36:07;;;;;;;12.82;7.35;;;;;;;5.87;85.58;101614.73;1847731;75;25709;-64
2022/12/25 09:38:35;;;;;;;9.88;5.40;;;;;;;5.89;85.29;101615.52;1843061;77;25654;-64
2022/12/25 09:41:13;;;;;;;8.63;5.90;;;;;;;5.91;85.30;101622.50;1820915;77;26956;-64
2022/12/25 09:44:03;;;;;;;9.93;5.87;;;;;;;5.93;85.13;101625.95;1847916;77;25693;-64
2022/12/25 09:46:35;;;;;;;9.43;4.92;;;;;;;5.94;84.92;101623.67;1833989;77;27460;-64
2022/12/25 09:49:25;;;;;;;8.58;4.20;;;;;;;5.93;84.70;101625.95;1853068;77;25696;-64
2022/12/25 09:51:57;;;;;;;10.40;4.37;;;;;;;5.93;84.67;101628.62;1847898;77;25739;-64
2022/12/25 09:54:35;;;;;;;6.70;4.62;;;;;;;5.95;84.73;101628.07;1851452;77;25863;-64
2022/12/25 09:57:02;;;;;;;7.87;4.78;;;;;;;5.94;84.43;101626.34;1849036;77;25761;-64
2022/12/25 09:59:29;;;;;;;14.13;5.58;;;;;;;5.98;84.50;101631.03;1825352;77;28130;-64
2022/12/25 10:02:13;;;;;;;10.35;5.53;;;;;;;6.00;84.41;101620.29;1851506;77;25795;-64
2022/12/25 10:04:53;;;;;;;11.28;4.25;;;;;;;6.05;84.37;101619.58;1851407;77;36495;-63
2022/12/25 10:07:43;;;;;;;5.87;3.98;;;;;;;6.18;84.46;101619.75;1853844;77;26286;-64
2022/12/25 10:10:21;;;;;;;11.93;4.60;;;;;;;6.26;84.30;101622.84;1833878;75;25893;-64
2022/12/25 10:13:11;;;;;;;11.05;6.17;;;;;;;6.30;83.90;101626.20;1842764;77;27399;-64
2022/12/25 10:16:34;;;;;;;12.60;6.70;;;;;;;6.36;83.49;101620.03;1839591;76;25725;-64
2022/12/25 10:19:15;;;;;;;13.22;6.92;;;;;;;6.33;82.79;101620.20;1830730;76;25690;-64
2022/12/25 10:21:43;;;;;;;14.58;7.17;;;;;;;6.36;83.32;101626.72;1830122;75;26809;-64
2022/12/25 10:24:39;;;;;;;15.05;8.00;;;;;;;6.37;82.77;101619.06;1860221;76;25776;-65
2022/12/25 10:27:38;;;;;;;10.10;5.72;;;;;;;6.40;82.90;101620.72;1864933;75;27463;-65
2022/12/25 10:30:19;;;;;;;11.65;6.87;;;;;;;6.49;83.02;101617.52;1841814;75;25767;-65
2022/12/25 10:32:48;;;;;;;9.50;4.90;;;;;;;6.55;82.60;101615.81;1850946;75;25708;-64
2022/12/25 10:35:19;;;;;;;10.35;5.80;;;;;;;6.66;82.68;101623.20;1864016;76;25775;-64
2022/12/25 10:37:54;;;;;;;15.90;6.95;;;;;;;6.72;82.18;101623.31;1847766;75;25799;-65
2022/12/25 10:40:56;;;;;;;14.00;6.87;;;;;;;6.74;81.57;101629.45;1848415;76;27455;-65
2022/12/25 10:43:48;;;;;;;9.95;6.92;;;;;;;6.74;81.65;101628.11;1849618;76;25787;-65
2022/12/25 10:46:17;;;;;;;9.63;7.12;;;;;;;6.84;81.86;101644.00;1845766;77;25769;-65
2022/12/25 10:48:49;;;;;;;14.60;6.90;;;;;;;6.89;81.39;101637.89;1845786;77;26512;-64
2022/12/25 10:51:31;;;;;;;11.53;6.12;;;;;;;6.93;81.09;101639.06;1845901;77;25872;-65
2022/12/25 10:53:58;;;;;;;17.20;8.48;;;;;;;7.00;81.25;101638.58;1843324;77;28450;-65
2022/12/25 10:56:25;;;;;;;14.15;8.70;;;;;;;7.10;80.89;101637.58;1846156;77;25737;-65
2022/12/25 10:59:04;;;;;;;11.10;7.28;;;;;;;7.13;80.47;101638.70;1846032;77;25649;-65
2022/12/25 11:01:32;;;;;;;15.53;7.05;;;;;;;7.15;80.25;101643.50;1847921;76;25754;-65
2022/12/25 11:03:59;;;;;;;10.48;6.58;;;;;;;7.19;79.45;101640.16;1865553;76;25978;-64
2022/12/25 11:06:30;;;;;;;13.72;8.25;;;;;;;7.22;79.32;101645.82;1855958;76;28353;-64
2022/12/25 11:08:59;;;;;;;13.43;7.83;;;;;;;7.22;78.96;101645.33;1860054;76;26356;-65
2022/12/25 11:11:29;;;;;;;11.18;7.37;;;;;;;7.28;79.13;101646.28;1860140;76;25887;-64
2022/12/25 11:14:01;;;;;;;14.98;7.80;;;;;;;7.31;78.98;101654.14;1858157;76;25816;-64
2022/12/25 11:16:34;;;;;;;15.15;8.55;;;;;;;7.36;78.79;101664.08;1845014;76;25758;-65
2022/12/25 11:19:03;;;;;;;15.40;8.25;;;;;;;7.34;78.37;101658.44;1829428;77;27486;-65
2022/12/25 11:21:34;;;;;;;12.25;7.78;;;;;;;7.34;78.50;101662.45;1836885;77;25724;-64
2022/12/25 11:24:06;;;;;;;16.85;8.40;;;;;;;7.33;78.49;101662.95;1801622;77;25691;-64
2022/12/25 11:26:50;;;;;;;14.70;9.05;;;;;;;7.33;78.22;101651.36;1834690;77;25785;-65
2022/12/25 11:29:42;;;;;;;21.93;11.40;;;;;;;7.31;77.79;101663.51;1836531;77;25972;-64
2022/12/25 11:32:24;;;;;;;20.23;10.85;;;;;;;7.28;78.01;101657.48;1831204;77;29639;-63
2022/12/25 11:34:52;;;;;;;17.20;10.43;;;;;;;7.24;77.59;101667.98;1834830;77;25848;-63
2022/12/25 11:37:40;;;;;;;15.48;10.05;;;;;;;7.20;77.75;101667.30;1834645;77;25666;-63
2022/12/25 11:40:18;;;;;;;15.80;9.00;;;;;;;7.19;77.42;101660.22;1830550;77;25711;-63
2022/12/25 11:42:55;;;;;;;16.82;9.28;;;;;;;7.20;77.24;101668.18;1823206;77;26003;-63
2022/12/25 11:45:32;;;;;;;21.40;10.43;;;;;;;7.18;76.74;101665.19;1839267;77;27460;-63
2022/12/25 11:48:19;;;;;;;14.43;8.88;;;;;;;7.18;76.66;101676.77;1843299;77;25727;-63
2022/12/25 11:50:59;;;;;;;14.98;9.28;;;;;;;7.22;76.78;101664.55;1831483;77;25765;-64
2022/12/25 11:53:38;;;;;;;14.90;8.98;;;;;;;7.25;76.63;101663.02;1827390;77;26562;-64
2022/12/25 11:56:23;;;;;;;16.42;9.80;;;;;;;7.28;76.63;101666.36;1824949;77;25506;-64
2022/12/25 11:58:55;;;;;;;19.52;9.58;;;;;;;7.28;76.41;101673.55;1819947;77;27475;-64
2022/12/25 12:01:47;;;;;;;17.42;9.78;;;;;;;7.32;76.56;101677.28;1810203;79;25729;-64
2022/12/25 12:04:37;;;;;;;17.98;9.50;;;;;;;7.34;76.40;101678.06;1816807;77;25757;-64
2022/12/25 12:07:27;;;;;;;15.85;8.35;;;;;;;7.33;75.89;101680.34;1822895;77;25816;-64
2022/12/25 12:10:17;;;;;;;18.02;9.35;;;;;;;7.40;75.77;101679.47;1829017;77;25495;-64
2022/12/25 12:13:38;;;;;;;13.32;8.70;;;;;;;7.44;75.82;101685.04;1842773;77;27471;-63
2022/12/25 12:16:07;;;;;;;12.50;8.78;;;;;;;7.44;75.28;101690.89;1840601;76;25799;-64
2022/12/25 12:18:36;;;;;;;15.35;9.40;;;;;;;7.37;75.50;101686.38;1841439;75;25767;-64
2022/12/25 12:21:30;;;;;;;19.00;10.43;;;;;;;7.36;75.62;101688.66;1823005;78;25982;-63
2022/12/25 12:24:16;;;;;;;;;;;;;;;7.35;75.48;101688.27;1825393;78;25696;-64
2022/12/25 12:26:45;;;;;;;19.00;9.53;;;;;;;7.31;75.71;101687.60;1821589;78;27422;-64
2022/12/25 12:29:29;;;;;;;15.03;9.48;;;;;;;7.31;75.92;101692.08;1823275;77;25666;-64
2022/12/25 12:32:02;;;;;;;20.77;10.32;;;;;;;7.28;75.94;101692.28;1818670;77;25773;-63
2022/12/25 12:34:42;;;;;;;22.52;10.28;;;;;;;7.24;76.00;101697.42;1853172;77;25943;-64
2022/12/25 12:37:23;;;;;;;20.50;10.70;;;;;;;7.18;76.24;101695.96;1850086;77;26201;-65
2022/12/25 12:39:53;;;;;;;21.75;10.20;;;;;;;7.16;76.08;101701.91;1815052;77;27473;-63
2022/12/25 12:42:27;;;;;;;16.37;9.33;;;;;;;7.13;76.40;101711.44;1816163;78;25742;-64
2022/12/25 12:44:57;;;;;;;14.03;7.67;;;;;;;7.18;76.43;101710.68;1816529;79;25750;-63
2022/12/25 12:47:35;;;;;;;17.52;8.68;;;;;;;7.20;76.41;101711.45;1816136;78;26006;-64
2022/12/25 12:50:02;;;;;;;14.15;8.18;;;;;;;7.24;76.29;101720.16;1851274;75;25749;-65
2022/12/25 12:52:40;;;;;;;14.60;8.33;;;;;;;7.25;76.17;101717.87;1822949;78;27504;-65
2022/12/25 12:55:13;;;;;;;18.37;8.48;;;;;;;7.24;76.29;101722.38;1851185;77;25751;-64
2022/12/25 12:57:41;;;;;;;18.25;8.70;;;;;;;7.26;76.10;101728.97;1830220;77;25712;-65
2022/12/25 13:00:16;;;;;;;17.02;8.28;;;;;;;7.24;76.06;101738.90;1845498;77;25727;-64
2022/12/25 13:03:15;;;;;;;18.00;9.70;;;;;;;7.24;76.17;101742.45;1848390;77;25516;-65
2022/12/25 13:05:53;;;;;;;17.30;8.50;;;;;;;7.19;76.02;101744.06;1851868;75;27430;-64
2022/12/25 13:08:42;;;;;;;20.90;8.45;;;;;;;7.16;76.02;101746.91;1839759;77;25808;-64
2022/12/25 13:11:23;;;;;;;14.35;8.50;;;;;;;7.14;76.07;101748.80;1853095;77;25830;-64
2022/12/25 13:13:53;;;;;;;15.68;8.15;;;;;;;7.13;76.18;101759.12;1822965;78;25770;-64
2022/12/25 13:16:43;;;;;;;18.07;10.25;;;;;;;7.12;76.17;101754.75;1822773;78;25444;-64
2022/12/25 13:19:21;;;;;;;15.40;8.88;;;;;;;7.12;76.31;101759.22;1838597;75;28306;-64
2022/12/25 13:22:01;;;;;;;15.20;8.48;;;;;;;7.13;76.41;101771.16;1851664;77;25720;-64
2022/12/25 13:24:35;;;;;;;19.50;9.33;;;;;;;7.11;76.50;101770.41;1853615;75;25751;-64
2022/12/25 13:27:21;;;;;;;14.13;7.40;;;;;;;7.13;76.70;101770.31;1846263;77;25762;-63
2022/12/25 13:29:47;;;;;;;18.50;9.20;;;;;;;7.17;76.53;101777.23;1854482;77;26022;-64